Time;durP1;ratioP1;P1;durP2;ratioP2;P2;SDS_P1;SDS_P2;PMS_P1;PMS_P2;Temp;Humidity;BMP_temperature;BMP_pressure;BME280_temperature;BME280_humidity;BME280_pressure;Samples;Min_cycle;Max_cycle;Signal;HPM_P1;HPM_P2
2023/04/23 12:56:43;;;;;;;4.25;1.13;;;;;;;21.92;41.74;100339.47;5118813;27;20427;-44
2023/04/23 12:59:11;;;;;;;2.53;1.10;;;;;;;22.68;39.89;100347.22;5104105;28;20032;-45
2023/04/23 13:01:40;;;;;;;4.50;1.48;;;;;;;23.21;38.56;100349.41;5109162;28;20538;-46
2023/04/23 13:04:09;;;;;;;2.97;1.50;;;;;;;23.59;37.90;100352.25;5109199;28;20020;-45
2023/04/23 13:06:36;;;;;;;2.72;1.27;;;;;;;23.85;37.09;100349.72;5105179;28;20032;-48
2023/04/23 13:09:04;;;;;;;3.75;1.60;;;;;;;23.99;36.83;100352.44;5108618;28;20081;-45
2023/04/23 13:11:32;;;;;;;1.95;1.20;;;;;;;24.17;36.55;100355.97;5109282;28;20423;-44
2023/04/23 13:14:00;;;;;;;4.10;1.67;;;;;;;24.25;36.70;100368.22;5107988;28;20507;-45
2023/04/23 13:16:29;;;;;;;1.40;1.00;;;;;;;24.21;36.24;100362.97;5106108;28;20036;-48
2023/04/23 13:18:57;;;;;;;3.65;1.30;;;;;;;24.20;36.46;100362.09;5105911;28;20028;-44
2023/04/23 13:21:26;;;;;;;4.60;1.23;;;;;;;24.25;36.43;100380.47;5109298;28;20030;-44
2023/04/23 13:23:54;;;;;;;4.18;1.17;;;;;;;24.32;35.71;100382.25;5109631;28;20465;-46
2023/04/23 13:26:22;;;;;;;3.55;1.50;;;;;;;24.26;36.06;100383.06;5108587;28;20040;-45
2023/04/23 13:28:49;;;;;;;3.63;1.20;;;;;;;24.26;36.16;100385.69;5109446;28;20099;-45
2023/04/23 13:31:17;;;;;;;3.03;1.40;;;;;;;24.26;35.84;100382.22;5105013;28;20068;-45
2023/04/23 13:33:44;;;;;;;3.67;1.45;;;;;;;24.30;35.74;100381.34;5109622;28;20496;-44
2023/04/23 13:36:12;;;;;;;6.22;1.83;;;;;;;24.34;35.64;100387.47;5108125;28;20028;-44
2023/04/23 13:38:39;;;;;;;2.17;1.10;;;;;;;24.28;35.35;100383.09;5105169;28;20120;-45
2023/04/23 13:41:06;;;;;;;5.43;1.52;;;;;;;24.29;35.52;100390.09;5109257;28;20042;-48
2023/04/23 13:43:34;;;;;;;3.60;1.27;;;;;;;24.30;35.61;100390.94;5104234;28;20032;-46
2023/04/23 13:46:02;;;;;;;7.30;1.27;;;;;;;24.38;35.86;100379.59;5100760;28;20047;-45
2023/04/23 13:48:30;;;;;;;6.03;1.60;;;;;;;24.37;35.69;100382.25;5109146;28;20028;-47
2023/04/23 13:50:59;;;;;;;6.63;1.38;;;;;;;24.42;35.90;100384.00;5106328;28;20056;-44
2023/04/23 13:53:28;;;;;;;3.47;1.55;;;;;;;24.36;35.39;100378.72;5108170;28;20378;-49
2023/04/23 13:55:58;;;;;;;3.75;1.40;;;;;;;24.36;35.25;100388.34;5105724;28;20044;-44
2023/04/23 13:58:27;;;;;;;5.10;1.35;;;;;;;24.38;35.29;100384.84;5107712;28;20043;-45
2023/04/23 14:00:55;;;;;;;4.70;1.73;;;;;;;24.37;35.44;100388.34;5107082;28;20154;-44
2023/04/23 14:03:23;;;;;;;3.72;1.30;;;;;;;24.38;35.28;100387.47;5097870;28;20106;-44
2023/04/23 14:05:52;;;;;;;4.43;1.50;;;;;;;24.41;35.21;100390.09;5105407;28;20039;-44
2023/04/23 14:08:20;;;;;;;5.53;2.10;;;;;;;24.39;35.31;100402.34;5094481;28;20032;-47
2023/04/23 14:10:49;;;;;;;3.83;1.42;;;;;;;24.42;35.25;100396.22;5090199;28;20028;-44
2023/04/23 14:13:17;;;;;;;2.17;1.25;;;;;;;24.41;35.17;100404.94;5090003;28;20024;-46
2023/04/23 14:15:45;;;;;;;4.95;1.70;;;;;;;24.36;34.96;100391.84;5093381;28;20028;-45
2023/04/23 14:18:13;;;;;;;9.05;1.65;;;;;;;24.45;35.13;100398.00;5087400;28;20032;-47
2023/04/23 14:20:42;;;;;;;5.43;2.17;;;;;;;24.39;35.10;100399.72;5094929;28;20028;-44
2023/04/23 14:23:43;;;;;;;4.80;1.60;;;;;;;24.28;35.58;100397.06;5086551;28;20082;-44
2023/04/23 14:26:11;;;;;;;5.85;1.63;;;;;;;24.34;35.50;100388.34;5092565;28;20028;-45
2023/04/23 14:28:44;;;;;;;4.80;1.50;;;;;;;24.33;35.09;100397.06;5093385;28;20103;-48
2023/04/23 14:31:12;;;;;;;6.18;1.95;;;;;;;24.34;34.82;100404.06;5089224;28;20028;-44
2023/04/23 14:33:41;;;;;;;3.70;1.48;;;;;;;24.35;35.06;100390.09;5090190;28;20035;-45
2023/04/23 14:36:09;;;;;;;7.50;1.98;;;;;;;24.34;35.45;100403.19;5091864;28;20028;-46
2023/04/23 14:38:36;;;;;;;6.45;1.92;;;;;;;24.33;35.25;100406.69;5094340;28;20099;-45
2023/04/23 14:41:03;;;;;;;4.63;1.70;;;;;;;24.26;35.19;100411.03;5090578;28;20488;-45
2023/04/23 14:43:32;;;;;;;8.45;2.15;;;;;;;24.17;35.40;100418.84;5093634;28;20032;-44
2023/04/23 14:46:01;;;;;;;6.60;2.20;;;;;;;24.19;35.56;100414.50;5089370;28;20036;-44
2023/04/23 14:48:30;;;;;;;6.47;1.90;;;;;;;24.16;35.44;100420.63;5091495;28;20398;-47
2023/04/23 14:50:59;;;;;;;11.43;3.10;;;;;;;24.14;35.23;100427.59;5093131;28;20070;-45
2023/04/23 14:53:28;;;;;;;5.32;1.80;;;;;;;24.20;35.53;100431.97;5088874;28;20024;-45
2023/04/23 14:55:56;;;;;;;5.47;1.88;;;;;;;24.19;35.60;100431.13;5090049;28;20050;-46
2023/04/23 14:58:25;;;;;;;9.95;2.53;;;;;;;24.27;35.36;100428.53;5090453;28;20029;-44
2023/04/23 15:03:30;;;;;;;6.05;2.20;;;;;;;26.03;32.29;100432.00;5046808;28;20057;-47
2023/04/23 15:05:58;;;;;;;7.20;2.22;;;;;;;28.03;28.94;100426.06;5053235;28;20040;-47
2023/04/23 15:08:27;;;;;;;5.75;2.03;;;;;;;28.17;28.33;100417.13;5053943;28;20493;-47
2023/04/23 15:10:55;;;;;;;6.78;2.25;;;;;;;26.20;31.44;100429.34;5053603;28;20166;-47
2023/04/23 15:13:56;;;;;;;5.68;2.60;;;;;;;25.32;33.18;100422.53;5054014;28;20490;-47
2023/04/23 15:16:28;;;;;;;7.60;2.10;;;;;;;24.83;34.00;100434.78;5051955;28;20036;-47
2023/04/23 15:18:58;;;;;;;6.03;2.63;;;;;;;24.54;34.46;100438.22;5052904;28;20371;-44
2023/04/23 15:21:26;;;;;;;8.02;2.20;;;;;;;24.45;34.73;100443.41;5054026;28;20044;-46
2023/04/23 15:23:55;;;;;;;7.75;1.95;;;;;;;24.39;34.95;100444.28;5053267;28;20158;-44
2023/04/23 15:26:24;;;;;;;4.53;2.10;;;;;;;24.36;34.90;100446.88;5052651;28;20529;-44
2023/04/23 15:28:53;;;;;;;5.82;1.90;;;;;;;24.43;34.83;100443.44;5035730;28;20058;-45
2023/04/23 15:31:21;;;;;;;8.75;2.33;;;;;;;24.46;35.02;100442.56;5035973;28;20029;-48
2023/04/23 15:33:50;;;;;;;7.03;2.28;;;;;;;24.35;35.14;100447.75;5035804;28;20154;-45
2023/04/23 15:36:18;;;;;;;7.03;1.98;;;;;;;24.34;35.17;100451.25;5034650;28;20112;-47
2023/04/23 15:38:47;;;;;;;6.97;1.90;;;;;;;24.36;34.69;100449.50;5053339;28;20075;-45
2023/04/23 15:41:15;;;;;;;8.10;2.35;;;;;;;24.35;34.70;100452.13;5052825;28;20082;-46
2023/04/23 15:43:44;;;;;;;10.15;2.80;;;;;;;24.26;34.69;100448.59;5034965;28;20025;-45
2023/04/23 15:46:12;;;;;;;8.75;2.13;;;;;;;24.25;34.70;100456.47;5052461;28;20025;-46
2023/04/23 15:48:41;;;;;;;4.82;1.48;;;;;;;24.24;35.00;100460.81;5052919;28;20086;-46
2023/04/23 15:51:09;;;;;;;5.30;1.45;;;;;;;24.22;34.62;100461.69;5052855;28;20030;-46
2023/04/23 15:53:38;;;;;;;7.22;2.20;;;;;;;24.23;34.94;100463.44;5035220;28;20069;-45
2023/04/23 15:56:06;;;;;;;6.70;1.83;;;;;;;24.16;34.99;100473.03;5034194;28;20475;-45
2023/04/23 15:58:35;;;;;;;4.43;1.55;;;;;;;24.16;34.77;100478.28;5052460;28;20033;-45
2023/04/23 16:01:05;;;;;;;9.27;1.95;;;;;;;24.16;34.87;100482.66;5053078;28;20024;-47
2023/04/23 16:03:34;;;;;;;4.95;1.75;;;;;;;24.17;34.75;100476.50;5052841;28;20044;-45
2023/04/23 16:06:03;;;;;;;7.68;1.92;;;;;;;24.16;35.08;100493.13;5034508;28;20036;-44
